Time;durP1;ratioP1;P1;durP2;ratioP2;P2;SDS_P1;SDS_P2;PMS_P1;PMS_P2;Temp;Humidity;BMP_temperature;BMP_pressure;BME280_temperature;BME280_humidity;BME280_pressure;Samples;Min_cycle;Max_cycle;Signal;HPM_P1;HPM_P2
2021/12/11 00:00:46;;;;;;;46.42;23.40;;;;;;;1.40;100.00;99225.66;5073524;28;20048;-73
2021/12/11 00:03:18;;;;;;;48.83;24.23;;;;;;;1.35;100.00;99234.63;5074962;28;20045;-73
2021/12/11 00:05:52;;;;;;;44.85;23.42;;;;;;;1.37;100.00;99235.44;5074379;28;20045;-74
2021/12/11 00:08:23;;;;;;;45.47;23.35;;;;;;;1.39;100.00;99237.09;5074518;28;20124;-73
2021/12/11 00:10:57;;;;;;;48.22;23.70;;;;;;;1.40;100.00;99246.66;5074404;28;20033;-74
2021/12/11 00:13:29;;;;;;;48.00;24.33;;;;;;;1.36;100.00;99252.13;5074777;28;20444;-73
2021/12/11 00:15:59;;;;;;;52.15;25.27;;;;;;;1.33;100.00;99255.69;5074718;28;20048;-73
2021/12/11 00:18:29;;;;;;;48.95;24.05;;;;;;;1.38;100.00;99248.50;5074224;28;20080;-73
2021/12/11 00:21:01;;;;;;;49.35;24.35;;;;;;;1.40;100.00;99253.69;5074714;28;20051;-75
2021/12/11 00:23:34;;;;;;;48.65;24.55;;;;;;;1.42;100.00;99262.38;5074433;28;20044;-75
2021/12/11 00:26:05;;;;;;;52.87;24.93;;;;;;;1.34;100.00;99267.91;5074040;28;20041;-75
2021/12/11 00:28:33;;;;;;;53.55;23.92;;;;;;;1.34;100.00;99269.69;5074087;28;20086;-73
2021/12/11 00:31:02;;;;;;;48.45;24.05;;;;;;;1.28;100.00;99270.78;5074335;28;20040;-73
2021/12/11 00:33:34;;;;;;;48.03;24.20;;;;;;;1.35;100.00;99279.28;5074064;28;20067;-76
2021/12/11 00:36:11;;;;;;;53.92;25.08;;;;;;;1.34;100.00;99269.69;5074381;28;20591;-74
2021/12/11 00:38:41;;;;;;;52.08;24.25;;;;;;;1.28;100.00;99280.44;5073530;28;20060;-74
2021/12/11 00:41:14;;;;;;;50.20;23.20;;;;;;;1.40;100.00;99290.50;5074198;28;20040;-75
2021/12/11 00:43:43;;;;;;;52.45;24.17;;;;;;;1.47;100.00;99293.75;5073575;28;20044;-76
2021/12/11 00:46:16;;;;;;;49.00;23.27;;;;;;;1.48;100.00;99301.56;5072675;28;20052;-72
2021/12/11 00:48:47;;;;;;;51.05;23.85;;;;;;;1.48;100.00;99304.19;5073318;28;20044;-75
2021/12/11 00:51:20;;;;;;;50.63;24.77;;;;;;;1.47;100.00;99304.25;5073063;28;20040;-75
2021/12/11 00:53:51;;;;;;;48.53;23.17;;;;;;;1.46;100.00;99313.06;5073404;28;20059;-75
2021/12/11 00:56:24;;;;;;;55.20;24.38;;;;;;;1.50;100.00;99317.28;5073958;28;20044;-75
2021/12/11 00:58:55;;;;;;;50.47;23.45;;;;;;;1.55;100.00;99325.84;5073607;28;20743;-75
2021/12/11 01:01:26;;;;;;;48.13;23.63;;;;;;;1.49;100.00;99334.81;5073366;28;20585;-75
2021/12/11 01:03:59;;;;;;;51.33;23.03;;;;;;;1.44;100.00;99332.34;5073421;28;20128;-75
2021/12/11 01:06:32;;;;;;;49.20;23.23;;;;;;;1.46;100.00;99329.69;5073606;28;20389;-75
2021/12/11 01:09:04;;;;;;;46.83;22.50;;;;;;;1.56;100.00;99341.56;5073730;28;20044;-74
2021/12/11 01:11:40;;;;;;;47.03;22.02;;;;;;;1.57;100.00;99337.16;5073428;28;20087;-76
2021/12/11 01:14:17;;;;;;;47.72;22.17;;;;;;;1.53;100.00;99331.16;5073246;28;20055;-75
2021/12/11 01:16:56;;;;;;;45.05;21.15;;;;;;;1.54;100.00;99327.59;5073194;28;20444;-75
2021/12/11 01:19:24;;;;;;;45.58;20.23;;;;;;;1.52;100.00;99333.84;5073607;28;20390;-74
2021/12/11 01:21:59;;;;;;;45.92;21.92;;;;;;;1.44;100.00;99336.75;5073019;28;20048;-75
2021/12/11 01:24:42;;;;;;;50.00;21.67;;;;;;;1.48;100.00;99340.13;5073103;28;20048;-75
2021/12/11 01:27:15;;;;;;;48.58;21.20;;;;;;;1.47;100.00;99335.81;5073411;28;20036;-75
2021/12/11 01:29:45;;;;;;;44.60;20.25;;;;;;;1.48;100.00;99334.88;5072765;28;20044;-75
2021/12/11 01:32:15;;;;;;;42.67;20.08;;;;;;;1.55;100.00;99326.72;5073409;28;20045;-74
2021/12/11 01:34:45;;;;;;;47.83;21.77;;;;;;;1.55;100.00;99329.34;5071511;28;20505;-74
2021/12/11 01:37:15;;;;;;;46.92;22.00;;;;;;;1.61;100.00;99334.34;5073215;28;20052;-74
2021/12/11 01:39:44;;;;;;;45.38;20.30;;;;;;;1.56;100.00;99325.78;5072738;28;20557;-75
2021/12/11 01:42:17;;;;;;;45.33;20.90;;;;;;;1.58;100.00;99331.84;5072816;28;20041;-75
2021/12/11 01:44:47;;;;;;;40.30;19.88;;;;;;;1.61;100.00;99333.50;5072901;28;20041;-76
2021/12/11 01:47:18;;;;;;;41.08;18.88;;;;;;;1.63;100.00;99329.88;5073053;28;20041;-76
2021/12/11 01:49:51;;;;;;;42.47;19.67;;;;;;;1.71;100.00;99333.06;5072593;28;20052;-76
2021/12/11 01:52:32;;;;;;;43.72;19.45;;;;;;;1.77;100.00;99332.00;5072895;28;20051;-77
2021/12/11 01:55:02;;;;;;;41.05;19.52;;;;;;;1.65;100.00;99341.22;5072775;28;20048;-77
2021/12/11 01:57:32;;;;;;;40.28;19.75;;;;;;;1.58;100.00;99350.25;5073017;28;20072;-76
2021/12/11 02:00:07;;;;;;;39.03;18.85;;;;;;;1.75;100.00;99356.63;5072762;28;20556;-76
2021/12/11 02:02:41;;;;;;;41.67;19.45;;;;;;;1.53;100.00;99352.16;5073820;28;20053;-76
2021/12/11 02:05:14;;;;;;;42.13;18.92;;;;;;;1.56;100.00;99343.34;5077274;28;20041;-76
2021/12/11 02:07:44;;;;;;;41.23;18.93;;;;;;;1.71;100.00;99346.22;5076765;28;20037;-76
2021/12/11 02:10:18;;;;;;;41.92;18.23;;;;;;;1.66;100.00;99342.94;5076955;28;20048;-76
2021/12/11 02:12:50;;;;;;;39.53;18.92;;;;;;;1.63;100.00;99342.16;5076433;28;20041;-76
2021/12/11 02:15:24;;;;;;;40.20;18.75;;;;;;;1.62;100.00;99348.34;5076936;28;20493;-75
2021/12/11 02:17:59;;;;;;;39.22;18.98;;;;;;;1.72;100.00;99347.94;5076602;28;20044;-75
2021/12/11 02:20:31;;;;;;;39.55;18.50;;;;;;;1.62;100.00;99357.09;5077020;28;20047;-75
2021/12/11 02:23:01;;;;;;;41.47;19.70;;;;;;;1.62;100.00;99340.47;5076504;28;20037;-75
2021/12/11 02:25:33;;;;;;;40.28;18.55;;;;;;;1.59;100.00;99336.19;5076478;28;20044;-75
2021/12/11 02:28:07;;;;;;;40.47;18.27;;;;;;;1.77;100.00;99339.88;5076322;28;20047;-75
2021/12/11 02:30:39;;;;;;;42.50;18.88;;;;;;;1.62;100.00;99329.94;5076620;28;20049;-75
2021/12/11 02:33:14;;;;;;;41.47;20.25;;;;;;;1.55;100.00;99333.75;5075373;28;20052;-76
2021/12/11 02:35:50;;;;;;;43.65;18.83;;;;;;;1.55;100.00;99334.59;5076223;28;20123;-76
2021/12/11 02:38:25;;;;;;;42.15;18.55;;;;;;;1.39;100.00;99328.19;5074981;28;20060;-75
2021/12/11 02:40:58;;;;;;;41.58;18.58;;;;;;;1.34;100.00;99327.50;5075782;28;20041;-75
2021/12/11 02:43:29;;;;;;;43.53;18.40;;;;;;;1.34;100.00;99330.13;5075491;28;20052;-75
2021/12/11 02:46:03;;;;;;;39.88;19.10;;;;;;;1.34;100.00;99325.72;5076029;28;20051;-75
2021/12/11 02:48:35;;;;;;;40.20;18.10;;;;;;;1.28;100.00;99320.72;5074985;28;20052;-75
2021/12/11 02:51:13;;;;;;;45.17;19.77;;;;;;;1.29;100.00;99321.56;5076253;28;20069;-76
2021/12/11 02:53:46;;;;;;;44.72;18.88;;;;;;;1.33;100.00;99312.66;5075978;28;20042;-74
2021/12/11 02:56:19;;;;;;;42.72;18.10;;;;;;;1.24;100.00;99311.22;5076252;28;20137;-73
2021/12/11 02:58:52;;;;;;;45.67;19.58;;;;;;;1.35;100.00;99318.69;5075885;28;20041;-74
2021/12/11 03:01:26;;;;;;;45.83;18.55;;;;;;;1.28;100.00;99322.50;5076086;28;20497;-74
2021/12/11 03:04:06;;;;;;;36.15;17.70;;;;;;;1.31;100.00;99309.22;5075472;28;20041;-72
2021/12/11 03:06:40;;;;;;;39.72;17.00;;;;;;;1.20;100.00;99307.00;5076040;28;20051;-73
2021/12/11 03:09:15;;;;;;;40.88;19.02;;;;;;;1.23;100.00;99306.03;5074642;28;20044;-73
2021/12/11 03:11:44;;;;;;;38.45;17.15;;;;;;;1.18;100.00;99293.06;5075581;28;20041;-74
2021/12/11 03:14:16;;;;;;;40.63;17.52;;;;;;;1.23;100.00;99300.78;5074936;28;20094;-73
2021/12/11 03:16:45;;;;;;;42.88;18.35;;;;;;;1.31;100.00;99310.09;5075478;28;20119;-74
2021/12/11 03:19:17;;;;;;;43.03;17.55;;;;;;;1.30;100.00;99323.28;5075683;28;20131;-73
2021/12/11 03:21:46;;;;;;;42.53;18.25;;;;;;;1.19;100.00;99331.56;5075098;28;20500;-74
2021/12/11 03:24:16;;;;;;;39.38;18.15;;;;;;;1.22;100.00;99338.47;5075605;28;20127;-74
2021/12/11 03:26:47;;;;;;;36.67;15.90;;;;;;;1.23;100.00;99348.06;5074969;28;20500;-74
2021/12/11 03:29:16;;;;;;;34.80;16.38;;;;;;;1.22;100.00;99352.47;5075659;28;20068;-76
2021/12/11 03:31:45;;;;;;;38.13;17.58;;;;;;;1.35;100.00;99351.13;5075140;28;20495;-76
2021/12/11 03:34:18;;;;;;;38.85;17.10;;;;;;;1.28;100.00;99352.25;5075427;28;20047;-76
2021/12/11 03:36:48;;;;;;;39.65;17.38;;;;;;;1.32;100.00;99361.72;5074807;28;20055;-75
2021/12/11 03:39:21;;;;;;;37.33;16.88;;;;;;;1.43;100.00;99372.69;5075188;28;20057;-76
2021/12/11 03:41:51;;;;;;;36.35;16.02;;;;;;;1.37;100.00;99379.97;5075144;28;20032;-76
2021/12/11 03:44:19;;;;;;;36.40;16.67;;;;;;;1.37;100.00;99377.31;5075468;28;20556;-74
2021/12/11 03:46:52;;;;;;;37.72;17.20;;;;;;;1.31;100.00;99377.53;5073831;28;20051;-74
2021/12/11 03:49:22;;;;;;;37.22;16.67;;;;;;;1.38;100.00;99389.56;5074935;28;20040;-75
2021/12/11 03:51:53;;;;;;;34.70;15.98;;;;;;;1.41;100.00;99395.53;5074777;28;20045;-74
2021/12/11 03:54:26;;;;;;;32.40;15.30;;;;;;;1.49;100.00;99397.03;5074794;28;20037;-72
2021/12/11 03:56:54;;;;;;;32.17;14.23;;;;;;;1.43;100.00;99398.09;5074990;28;20040;-71
2021/12/11 03:59:26;;;;;;;33.38;14.35;;;;;;;1.46;100.00;99390.13;5075679;28;20398;-73
2021/12/11 04:01:58;;;;;;;31.17;14.50;;;;;;;1.34;100.00;99387.94;5074699;28;20040;-72
2021/12/11 04:04:30;;;;;;;29.48;13.13;;;;;;;1.35;100.00;99385.28;5074936;28;20064;-72
2021/12/11 04:07:02;;;;;;;28.65;12.75;;;;;;;1.36;100.00;99380.88;5074170;28;20040;-72
2021/12/11 04:09:32;;;;;;;31.25;14.10;;;;;;;1.33;100.00;99375.72;5074603;28;20120;-72
2021/12/11 04:12:03;;;;;;;29.88;13.25;;;;;;;1.43;100.00;99380.56;5074308;28;20051;-72
2021/12/11 04:14:34;;;;;;;30.17;13.50;;;;;;;1.43;100.00;99377.09;5074652;28;20047;-75
2021/12/11 04:17:05;;;;;;;33.58;15.13;;;;;;;1.22;100.00;99383.97;5074365;28;20041;-75
2021/12/11 04:19:35;;;;;;;32.13;14.27;;;;;;;1.28;100.00;99388.16;5074858;28;20580;-76
2021/12/11 04:22:05;;;;;;;32.55;15.65;;;;;;;1.23;100.00;99390.09;5073865;28;20040;-76
2021/12/11 04:24:38;;;;;;;35.47;15.27;;;;;;;1.22;100.00;99385.75;5074607;28;20158;-76
2021/12/11 04:27:09;;;;;;;28.65;14.23;;;;;;;1.14;100.00;99379.00;5074102;28;20052;-76
2021/12/11 04:29:38;;;;;;;39.03;16.63;;;;;;;1.19;100.00;99380.63;5074423;28;20450;-76
2021/12/11 04:32:08;;;;;;;38.08;15.98;;;;;;;1.05;100.00;99387.19;5073964;28;20044;-76
2021/12/11 04:34:37;;;;;;;30.80;14.27;;;;;;;1.17;100.00;99395.59;5074529;28;20196;-76
2021/12/11 04:37:11;;;;;;;38.92;16.73;;;;;;;1.19;100.00;99389.34;5072765;28;20052;-76
2021/12/11 04:39:44;;;;;;;31.10;14.27;;;;;;;1.12;100.00;99383.44;5074009;28;20091;-76
2021/12/11 04:42:20;;;;;;;30.10;13.77;;;;;;;1.05;100.00;99395.06;5074185;28;20086;-76
2021/12/11 04:44:48;;;;;;;37.40;15.85;;;;;;;1.07;100.00;99381.91;5073909;28;20436;-76
2021/12/11 04:47:31;;;;;;;29.95;14.60;;;;;;;1.11;100.00;99387.00;5073952;28;20053;-77
2021/12/11 04:50:06;;;;;;;30.98;15.20;;;;;;;1.13;100.00;99406.19;5073379;28;20093;-77
2021/12/11 04:52:46;;;;;;;29.02;13.93;;;;;;;1.12;100.00;99414.97;5074060;28;20048;-75
2021/12/11 04:55:28;;;;;;;30.20;13.70;;;;;;;1.08;100.00;99412.53;5073950;28;20033;-75
2021/12/11 04:58:11;;;;;;;34.00;14.40;;;;;;;0.99;100.00;99408.44;5073542;28;20048;-77
2021/12/11 05:00:56;;;;;;;29.77;13.73;;;;;;;1.17;100.00;99403.47;5073908;28;20404;-75
2021/12/11 05:03:46;;;;;;;33.42;15.65;;;;;;;1.17;100.00;99421.84;5073601;28;20045;-76
2021/12/11 05:06:28;;;;;;;33.03;15.00;;;;;;;1.23;100.00;99416.38;5073555;28;20040;-78
2021/12/11 05:09:16;;;;;;;34.90;15.50;;;;;;;1.24;100.00;99418.06;5073274;28;20039;-78
2021/12/11 05:11:54;;;;;;;33.85;14.40;;;;;;;1.12;100.00;99430.72;5073478;28;20094;-78
2021/12/11 05:14:25;;;;;;;34.65;16.15;;;;;;;1.20;100.00;99433.09;5073533;28;20040;-78
2021/12/11 05:16:54;;;;;;;35.20;15.63;;;;;;;1.17;100.00;99433.22;5072909;28;20494;-78
2021/12/11 05:19:22;;;;;;;35.05;16.25;;;;;;;1.19;100.00;99434.00;5073626;28;20056;-77
2021/12/11 05:21:51;;;;;;;32.85;15.07;;;;;;;1.15;100.00;99438.50;5073100;28;20097;-76
2021/12/11 05:24:20;;;;;;;35.92;15.93;;;;;;;1.13;100.00;99437.69;5073301;28;20131;-77
2021/12/11 05:26:51;;;;;;;37.58;15.23;;;;;;;1.26;100.00;99434.66;5073336;28;20051;-77
2021/12/11 05:29:19;;;;;;;35.03;15.65;;;;;;;1.17;100.00;99434.97;5073428;28;20044;-77
2021/12/11 05:31:47;;;;;;;33.58;14.77;;;;;;;1.21;100.00;99437.44;5073407;28;20045;-77
2021/12/11 05:34:16;;;;;;;36.55;16.35;;;;;;;1.27;100.00;99444.25;5073519;28;20090;-77
2021/12/11 05:36:45;;;;;;;39.15;16.67;;;;;;;1.17;100.00;99443.72;5072968;28;20040;-77
2021/12/11 05:39:17;;;;;;;34.35;16.27;;;;;;;1.05;100.00;99444.13;5072374;28;20082;-77
2021/12/11 05:41:46;;;;;;;35.03;15.73;;;;;;;1.08;100.00;99449.28;5073280;28;20481;-76
2021/12/11 05:44:18;;;;;;;32.42;14.73;;;;;;;1.13;100.00;99449.97;5072824;28;20098;-76
2021/12/11 05:46:47;;;;;;;26.67;12.10;;;;;;;1.10;100.00;99452.72;5072931;28;20047;-77
2021/12/11 05:49:16;;;;;;;32.40;14.40;;;;;;;1.08;100.00;99452.78;5072428;28;20090;-77
2021/12/11 05:51:47;;;;;;;30.85;13.48;;;;;;;1.11;100.00;99460.53;5073305;28;20131;-72
2021/12/11 05:54:18;;;;;;;33.55;15.05;;;;;;;1.18;100.00;99470.84;5072799;28;20044;-72
2021/12/11 05:56:47;;;;;;;31.95;14.55;;;;;;;1.07;100.00;99468.59;5073051;28;20044;-72
2021/12/11 05:59:19;;;;;;;29.73;13.88;;;;;;;1.12;100.00;99475.38;5072688;28;20048;-72
2021/12/11 06:01:53;;;;;;;34.88;15.70;;;;;;;1.25;100.00;99478.44;5072991;28;20449;-72
2021/12/11 06:04:25;;;;;;;30.45;14.20;;;;;;;1.22;100.00;99480.31;5072143;28;20098;-74
2021/12/11 06:06:55;;;;;;;30.13;14.27;;;;;;;1.27;100.00;99483.66;5072745;28;20479;-77
2021/12/11 06:09:27;;;;;;;32.85;14.02;;;;;;;1.31;100.00;99485.25;5072810;28;20037;-75
2021/12/11 06:11:58;;;;;;;33.77;15.27;;;;;;;1.14;100.00;99496.34;5072394;28;20048;-74
2021/12/11 06:14:28;;;;;;;32.28;14.43;;;;;;;1.04;100.00;99506.28;5071537;28;20060;-72
2021/12/11 06:17:02;;;;;;;31.67;14.13;;;;;;;1.10;100.00;99511.34;5072601;28;20047;-73
2021/12/11 06:19:31;;;;;;;28.85;13.68;;;;;;;1.04;100.00;99522.06;5073061;28;20072;-73
2021/12/11 06:22:00;;;;;;;27.77;13.90;;;;;;;0.99;100.00;99524.00;5072285;28;20094;-73
2021/12/11 06:24:29;;;;;;;29.50;14.45;;;;;;;1.10;100.00;99527.13;5072483;28;20082;-73
2021/12/11 06:26:58;;;;;;;30.98;14.23;;;;;;;1.14;100.00;99533.97;5072340;28;20098;-72
2021/12/11 06:29:29;;;;;;;29.75;13.65;;;;;;;1.19;100.00;99546.13;5072941;28;20469;-74
2021/12/11 06:31:57;;;;;;;28.60;12.63;;;;;;;1.12;100.00;99546.31;5072674;28;20158;-75
2021/12/11 06:34:26;;;;;;;34.78;14.32;;;;;;;1.15;100.00;99561.94;5072597;28;20036;-75
2021/12/11 06:36:55;;;;;;;31.83;14.85;;;;;;;1.18;100.00;99581.19;5072583;28;20094;-76
2021/12/11 06:39:25;;;;;;;30.17;14.02;;;;;;;1.27;100.00;99578.25;5072625;28;20126;-76
2021/12/11 06:41:58;;;;;;;29.25;14.02;;;;;;;1.18;100.00;99584.66;5072578;28;20136;-75
2021/12/11 06:44:28;;;;;;;29.60;14.02;;;;;;;1.24;100.00;99580.97;5072643;28;20094;-76
2021/12/11 06:46:58;;;;;;;30.27;14.25;;;;;;;1.27;100.00;99575.63;5071964;28;20041;-76
2021/12/11 06:49:28;;;;;;;30.50;14.18;;;;;;;1.17;100.00;99579.47;5072861;28;20047;-76
2021/12/11 06:51:57;;;;;;;26.88;12.95;;;;;;;1.25;100.00;99582.66;5075990;28;20045;-77
2021/12/11 06:54:26;;;;;;;29.15;13.05;;;;;;;1.27;100.00;99580.88;5075874;28;20440;-76
2021/12/11 06:56:55;;;;;;;30.23;13.27;;;;;;;1.29;100.00;99590.41;5076173;28;20098;-76
2021/12/11 06:59:23;;;;;;;30.48;14.23;;;;;;;1.37;100.00;99598.91;5076078;28;20071;-76
2021/12/11 07:01:53;;;;;;;29.65;14.82;;;;;;;1.37;100.00;99613.81;5076189;28;20044;-76
2021/12/11 07:04:22;;;;;;;34.78;15.93;;;;;;;1.44;100.00;99615.31;5075896;28;20064;-76
2021/12/11 07:06:54;;;;;;;29.25;13.60;;;;;;;1.56;100.00;99624.59;5075745;28;20052;-75
2021/12/11 07:09:24;;;;;;;33.55;15.20;;;;;;;1.55;100.00;99634.25;5074175;28;20044;-75
2021/12/11 07:11:54;;;;;;;33.08;14.18;;;;;;;1.46;100.00;99639.81;5075544;28;20489;-75
2021/12/11 07:14:25;;;;;;;31.77;13.52;;;;;;;1.52;100.00;99647.47;5075163;28;20557;-76
2021/12/11 07:16:56;;;;;;;29.15;14.50;;;;;;;1.46;100.00;99650.31;5075598;28;20137;-77
2021/12/11 07:19:25;;;;;;;30.50;14.73;;;;;;;1.34;100.00;99667.31;5075919;28;20040;-76
2021/12/11 07:21:54;;;;;;;34.03;15.55;;;;;;;1.43;100.00;99672.28;5075755;28;20100;-77
2021/12/11 07:24:27;;;;;;;29.05;14.13;;;;;;;1.50;100.00;99678.22;5075256;28;20048;-76
2021/12/11 07:26:55;;;;;;;26.33;12.30;;;;;;;1.57;100.00;99685.00;5075685;28;20063;-75
2021/12/11 07:29:30;;;;;;;29.73;14.27;;;;;;;1.58;100.00;99680.59;5075351;28;20342;-74
2021/12/11 07:32:01;;;;;;;29.75;13.75;;;;;;;1.48;100.00;99687.06;5075635;28;20067;-74
2021/12/11 07:34:30;;;;;;;32.17;14.80;;;;;;;1.52;100.00;99696.56;5075733;28;20127;-74
2021/12/11 07:37:00;;;;;;;31.10;14.68;;;;;;;1.51;100.00;99703.56;5075326;28;20049;-77
2021/12/11 07:39:28;;;;;;;29.73;14.10;;;;;;;1.52;100.00;99702.66;5075491;28;20469;-76
2021/12/11 07:41:57;;;;;;;28.25;13.00;;;;;;;1.70;100.00;99704.69;5075330;28;20041;-76
2021/12/11 07:44:27;;;;;;;32.10;12.80;;;;;;;1.81;100.00;99704.34;5075412;28;20128;-76
2021/12/11 07:46:58;;;;;;;29.17;13.52;;;;;;;1.83;100.00;99705.16;5075008;28;20102;-74
2021/12/11 07:49:28;;;;;;;25.98;13.25;;;;;;;1.75;100.00;99708.97;5074889;28;20494;-74
2021/12/11 07:51:57;;;;;;;28.65;13.93;;;;;;;1.73;100.00;99701.97;5075209;28;20048;-74
2021/12/11 07:54:25;;;;;;;29.60;13.43;;;;;;;1.79;100.00;99703.53;5074733;28;20041;-72
2021/12/11 07:56:54;;;;;;;27.13;13.63;;;;;;;1.86;100.00;99693.69;5074543;28;20127;-72
2021/12/11 07:59:23;;;;;;;24.08;12.10;;;;;;;1.75;100.00;99699.31;5074291;28;20864;-72
2021/12/11 08:01:54;;;;;;;26.35;11.93;;;;;;;1.66;100.00;99695.22;5073340;28;20082;-77
2021/12/11 08:04:24;;;;;;;26.23;12.35;;;;;;;1.63;100.00;99699.69;5074396;28;20048;-75
2021/12/11 08:06:54;;;;;;;26.05;12.75;;;;;;;1.67;100.00;99699.56;5074473;28;20102;-77
2021/12/11 08:09:24;;;;;;;29.70;13.10;;;;;;;1.69;100.00;99700.34;5074027;28;20090;-72
2021/12/11 08:11:53;;;;;;;25.23;12.02;;;;;;;1.60;100.00;99703.28;5074118;28;20115;-73
2021/12/11 08:14:22;;;;;;;22.45;11.10;;;;;;;1.80;100.00;99707.03;5078428;28;20037;-72
2021/12/11 08:16:56;;;;;;;27.05;13.50;;;;;;;1.71;100.00;99706.41;5078051;28;20075;-72
2021/12/11 08:19:26;;;;;;;;;;;;;;;1.79;100.00;99711.44;5074649;28;20036;-71
2021/12/11 08:21:59;;;;;;;24.25;11.25;;;;;;;1.74;100.00;99713.38;5074399;28;20369;-76
2021/12/11 08:24:29;;;;;;;25.85;12.40;;;;;;;1.61;100.00;99718.16;5074084;28;20041;-81
2021/12/11 08:27:00;;;;;;;25.38;12.73;;;;;;;1.63;100.00;99724.22;5074397;28;20040;-78
2021/12/11 08:29:30;;;;;;;26.63;12.27;;;;;;;1.61;100.00;99723.41;5074206;28;20090;-77
2021/12/11 08:31:59;;;;;;;22.38;11.43;;;;;;;1.68;100.00;99724.94;5073855;28;20059;-75
2021/12/11 08:34:29;;;;;;;23.58;10.85;;;;;;;1.66;100.00;99720.66;5073842;28;20045;-75
2021/12/11 08:37:00;;;;;;;21.17;11.07;;;;;;;1.63;100.00;99721.56;5074340;28;20048;-81
2021/12/11 08:39:29;;;;;;;22.88;11.43;;;;;;;1.64;100.00;99733.84;5073626;28;20064;-73
2021/12/11 08:41:59;;;;;;;22.38;10.98;;;;;;;1.82;100.00;99736.75;5073869;28;20035;-79
2021/12/11 08:44:29;;;;;;;21.65;10.45;;;;;;;1.83;100.00;99741.97;5072371;28;20508;-76
2021/12/11 08:47:00;;;;;;;19.90;9.15;;;;;;;1.72;100.00;99741.47;5073792;28;20486;-74
2021/12/11 08:49:32;;;;;;;16.65;8.00;;;;;;;1.79;100.00;99743.00;5073226;28;20456;-76
2021/12/11 08:52:06;;;;;;;17.08;8.68;;;;;;;1.81;100.00;99735.91;5073894;28;20040;-75
2021/12/11 08:54:36;;;;;;;17.20;8.82;;;;;;;1.57;100.00;99742.81;5073912;28;20048;-74
2021/12/11 08:57:08;;;;;;;16.83;8.63;;;;;;;1.53;100.00;99733.28;5073365;28;20466;-73
2021/12/11 08:59:40;;;;;;;16.55;8.63;;;;;;;1.65;100.00;99746.06;5073690;28;20044;-74
2021/12/11 09:02:13;;;;;;;16.45;8.43;;;;;;;1.59;100.00;99754.16;5069872;28;20044;-74
2021/12/11 09:04:49;;;;;;;18.30;8.93;;;;;;;1.44;100.00;99754.59;5072174;28;20116;-75
2021/12/11 09:07:26;;;;;;;16.52;8.68;;;;;;;1.65;100.00;99755.72;5071727;28;20090;-75
2021/12/11 09:09:59;;;;;;;16.90;9.20;;;;;;;1.80;100.00;99749.09;5070770;28;20397;-74
2021/12/11 09:12:33;;;;;;;19.85;9.07;;;;;;;1.74;100.00;99755.44;5068719;28;20529;-74
2021/12/11 09:15:07;;;;;;;18.23;8.93;;;;;;;1.52;100.00;99765.75;5072000;28;20051;-75
2021/12/11 09:17:39;;;;;;;14.98;8.10;;;;;;;1.67;100.00;99765.28;5072888;28;20125;-72
2021/12/11 09:20:11;;;;;;;16.00;7.53;;;;;;;1.75;100.00;99772.06;5073359;28;20466;-75
2021/12/11 09:22:47;;;;;;;16.27;7.60;;;;;;;1.62;100.00;99763.69;5073722;28;20041;-74
2021/12/11 09:25:22;;;;;;;16.85;8.85;;;;;;;1.56;100.00;99772.66;5072684;28;20056;-75
2021/12/11 09:27:56;;;;;;;18.38;9.18;;;;;;;1.41;100.00;99759.97;5073646;28;20163;-74
2021/12/11 09:30:30;;;;;;;17.63;9.30;;;;;;;1.66;100.00;99768.81;5072955;28;20044;-74
2021/12/11 09:33:01;;;;;;;17.17;8.30;;;;;;;1.70;100.00;99785.34;5073474;28;20044;-76
2021/12/11 09:35:32;;;;;;;15.52;8.38;;;;;;;1.70;100.00;99780.09;5072708;28;20055;-74
2021/12/11 09:38:07;;;;;;;17.90;9.25;;;;;;;1.74;100.00;99787.00;5067587;28;20068;-73
2021/12/11 09:40:54;;;;;;;19.10;9.43;;;;;;;1.84;100.00;99784.94;5094356;28;20076;-71
2021/12/11 09:43:37;;;;;;;17.85;8.30;;;;;;;1.72;100.00;99789.66;5070813;28;20088;-72
2021/12/11 09:46:09;;;;;;;18.02;8.38;;;;;;;1.60;100.00;99797.94;5071609;28;20451;-76
2021/12/11 09:48:39;;;;;;;15.95;8.50;;;;;;;1.57;100.00;99798.03;5071700;28;20051;-76
2021/12/11 09:51:14;;;;;;;16.48;7.95;;;;;;;1.62;100.00;99793.47;5071527;28;20043;-75
2021/12/11 09:53:46;;;;;;;18.05;8.43;;;;;;;1.61;100.00;99797.00;5072194;28;20594;-73
2021/12/11 09:56:19;;;;;;;16.75;8.43;;;;;;;1.58;100.00;99794.50;5071491;28;20071;-71
2021/12/11 09:58:49;;;;;;;17.02;8.70;;;;;;;1.67;100.00;99796.84;5072018;28;20115;-75
2021/12/11 10:01:21;;;;;;;20.17;9.38;;;;;;;1.73;100.00;99790.50;5071738;28;20046;-75
2021/12/11 10:03:55;;;;;;;17.00;9.43;;;;;;;1.72;100.00;99794.03;5071813;28;20036;-73
2021/12/11 10:09:19;;;;;;;19.13;8.90;;;;;;;1.63;100.00;99781.19;5070033;28;20074;-71
2021/12/11 10:11:57;;;;;;;16.77;7.75;;;;;;;1.67;100.00;99786.31;5075053;28;20053;-70
2021/12/11 10:14:32;;;;;;;16.52;9.27;;;;;;;1.73;100.00;99783.47;5072230;28;20090;-76
2021/12/11 10:17:07;;;;;;;16.27;8.57;;;;;;;1.76;100.00;99786.94;5071890;28;20140;-75
2021/12/11 10:19:37;;;;;;;16.83;8.43;;;;;;;1.76;100.00;99779.06;5070490;28;20051;-70
2021/12/11 10:22:13;;;;;;;13.65;7.25;;;;;;;1.79;100.00;99785.06;5071230;28;20037;-73
2021/12/11 10:24:42;;;;;;;14.18;7.13;;;;;;;1.81;100.00;99774.50;5069674;28;20075;-73
2021/12/11 10:27:16;;;;;;;14.90;8.13;;;;;;;1.81;100.00;99782.38;5067601;28;20068;-69
2021/12/11 10:29:51;;;;;;;15.70;7.90;;;;;;;1.83;100.00;99775.28;5056079;28;20064;-71
2021/12/11 10:32:30;;;;;;;15.93;7.90;;;;;;;1.86;100.00;99789.22;5067844;28;20052;-75
2021/12/11 10:35:12;;;;;;;16.85;8.93;;;;;;;1.79;100.00;99800.84;5073578;28;20223;-75
2021/12/11 10:37:42;;;;;;;15.48;7.90;;;;;;;1.82;100.00;99792.00;5071454;28;20047;-75
2021/12/11 10:40:15;;;;;;;18.10;9.55;;;;;;;1.61;100.00;99796.16;5075312;28;20052;-70
2021/12/11 10:42:48;;;;;;;17.10;9.15;;;;;;;1.79;100.00;99799.97;5075399;28;20098;-72
2021/12/11 10:45:24;;;;;;;16.13;8.68;;;;;;;1.97;100.00;99796.78;5075089;28;20037;-73
2021/12/11 10:48:02;;;;;;;19.35;9.88;;;;;;;1.87;100.00;99797.97;5075103;28;20036;-73
2021/12/11 10:50:41;;;;;;;15.13;8.40;;;;;;;1.97;100.00;99799.41;5074115;28;20041;-76
2021/12/11 10:53:21;;;;;;;18.80;9.23;;;;;;;2.00;100.00;99796.66;5074727;28;20101;-70
2021/12/11 10:55:53;;;;;;;15.02;7.90;;;;;;;1.94;100.00;99795.09;5074303;28;20036;-77
2021/12/11 10:58:26;;;;;;;15.88;8.93;;;;;;;1.80;100.00;99791.19;5074661;28;20048;-67
2021/12/11 11:01:03;;;;;;;18.60;9.30;;;;;;;1.86;100.00;99785.75;5074665;28;20044;-69
2021/12/11 11:03:37;;;;;;;14.18;8.13;;;;;;;1.79;100.00;99778.94;5075070;28;20068;-68
2021/12/11 11:06:09;;;;;;;17.02;8.82;;;;;;;1.69;100.00;99773.13;5071722;28;20044;-67
2021/12/11 11:08:40;;;;;;;19.52;9.80;;;;;;;1.86;100.00;99759.44;5074514;28;20036;-70
2021/12/11 11:11:19;;;;;;;16.10;8.50;;;;;;;1.86;100.00;99764.69;5074985;28;20102;-68
2021/12/11 11:13:50;;;;;;;17.35;9.48;;;;;;;1.80;100.00;99764.88;5075158;28;20064;-69
2021/12/11 11:16:23;;;;;;;22.60;10.27;;;;;;;1.90;100.00;99764.53;5075853;28;20044;-70
2021/12/11 11:18:52;;;;;;;20.45;10.10;;;;;;;1.90;100.00;99767.16;5075052;28;20040;-69
2021/12/11 11:21:25;;;;;;;19.10;9.27;;;;;;;1.95;100.00;99760.00;5075189;28;20110;-71
2021/12/11 11:23:55;;;;;;;18.58;9.05;;;;;;;1.95;100.00;99760.00;5073606;28;20497;-70
2021/12/11 11:26:26;;;;;;;18.48;9.43;;;;;;;1.80;100.00;99765.75;5074362;28;20093;-70
2021/12/11 11:28:55;;;;;;;18.40;9.43;;;;;;;2.01;100.00;99757.16;5075520;28;20044;-70
2021/12/11 11:31:33;;;;;;;19.50;9.43;;;;;;;1.97;100.00;99752.91;5074790;28;20041;-70
2021/12/11 11:34:03;;;;;;;17.30;8.73;;;;;;;2.02;100.00;99765.91;5075350;28;20401;-70
2021/12/11 11:36:32;;;;;;;16.85;9.25;;;;;;;1.86;100.00;99762.06;5073496;28;20469;-70
2021/12/11 11:39:05;;;;;;;19.42;9.82;;;;;;;1.87;100.00;99772.53;5074215;28;20066;-70
2021/12/11 11:41:36;;;;;;;16.90;8.63;;;;;;;1.90;100.00;99767.16;5075489;28;20052;-69
2021/12/11 11:44:06;;;;;;;18.08;9.32;;;;;;;1.97;100.00;99778.34;5075422;28;20041;-71